Time;durP1;ratioP1;P1;durP2;ratioP2;P2;SDS_P1;SDS_P2;PMS_P1;PMS_P2;Temp;Humidity;BMP_temperature;BMP_pressure;BME280_temperature;BME280_humidity;BME280_pressure;Samples;Min_cycle;Max_cycle;Signal;HPM_P1;HPM_P2
2021/07/16 00:04:44;;;;;;;0.10;0.10;;;;;;;18.07;89.35;101743.91;10356279;28;20467;-63
2021/07/16 00:09:44;;;;;;;0.10;0.10;;;;;;;18.02;89.51;101750.88;10360230;28;20042;-63
2021/07/16 00:14:44;;;;;;;0.10;0.10;;;;;;;17.97;89.48;101751.44;10348871;28;20027;-63
2021/07/16 00:19:45;;;;;;;0.10;0.10;;;;;;;17.94;89.65;101753.66;10341079;28;20281;-63
2021/07/16 00:24:45;;;;;;;0.00;0.00;;;;;;;17.91;89.43;101756.72;10332662;28;20033;-63
2021/07/16 00:29:46;;;;;;;0.00;0.00;;;;;;;17.88;89.56;101766.03;10350251;28;20105;-63
2021/07/16 00:34:46;;;;;;;0.05;0.05;;;;;;;17.89;89.61;101756.94;10348642;28;20084;-63
2021/07/16 00:39:46;;;;;;;0.10;0.10;;;;;;;17.89;89.36;101748.84;10340888;28;20369;-63
2021/07/16 00:44:46;;;;;;;0.00;0.00;;;;;;;17.89;89.29;101762.31;10359593;28;20504;-63
2021/07/16 00:49:47;;;;;;;0.10;0.10;;;;;;;17.86;89.55;101758.13;10351225;28;20068;-64
2021/07/16 00:54:47;;;;;;;0.00;0.00;;;;;;;17.83;89.34;101754.94;10343325;28;20630;-63
2021/07/16 00:59:48;;;;;;;0.00;0.00;;;;;;;17.80;89.07;101766.97;10356340;28;20069;-64
2021/07/16 01:04:48;;;;;;;0.10;0.10;;;;;;;17.78;89.09;101770.84;10398885;22;20041;-62
2021/07/16 01:09:50;;;;;;;0.10;0.10;;;;;;;17.76;89.08;101778.25;10431653;28;20116;-61
2021/07/16 01:14:52;;;;;;;0.10;0.10;;;;;;;17.73;89.09;101778.63;10379603;28;20486;-62
2021/07/16 01:20:00;;;;;;;0.10;0.10;;;;;;;17.69;89.13;101761.97;10366762;28;20032;-61
2021/07/16 01:25:03;;;;;;;0.10;0.10;;;;;;;17.66;89.36;101765.06;10386063;28;20474;-62
2021/07/16 01:30:07;;;;;;;0.00;0.00;;;;;;;17.61;89.54;101770.13;10402555;28;20044;-62
2021/07/16 01:35:09;;;;;;;0.00;0.00;;;;;;;17.56;89.75;101750.97;10409763;28;20069;-61
2021/07/16 01:40:18;;;;;;;0.10;0.10;;;;;;;17.50;89.95;101755.25;10412100;28;20021;-62
2021/07/16 01:45:22;;;;;;;0.00;0.00;;;;;;;17.45;90.21;101764.88;10414906;28;20018;-62
2021/07/16 01:50:23;;;;;;;0.10;0.10;;;;;;;17.39;90.38;101775.38;10403840;28;20029;-62
2021/07/16 01:55:24;;;;;;;0.10;0.10;;;;;;;17.37;90.54;101774.72;10373432;28;20021;-62
2021/07/16 02:00:30;;;;;;;0.10;0.10;;;;;;;17.37;90.71;101773.88;10372572;28;20063;-62
2021/07/16 02:05:31;;;;;;;0.05;0.05;;;;;;;17.37;90.88;101763.13;10376133;28;20083;-61
2021/07/16 02:10:32;;;;;;;0.10;0.10;;;;;;;17.37;90.99;101771.19;10375218;28;20045;-61
2021/07/16 02:15:36;;;;;;;0.00;0.00;;;;;;;17.36;90.93;101778.41;10372625;28;20022;-60
2021/07/16 02:20:39;;;;;;;0.10;0.10;;;;;;;17.35;90.45;101773.22;10370971;28;20036;-62
2021/07/16 02:25:39;;;;;;;0.10;0.10;;;;;;;17.33;90.19;101772.56;10372370;28;20069;-62
2021/07/16 02:30:40;;;;;;;0.10;0.10;;;;;;;17.30;90.06;101772.91;10384677;28;20531;-62
2021/07/16 02:35:41;;;;;;;0.10;0.10;;;;;;;17.28;90.28;101783.03;10376211;28;20032;-60
2021/07/16 02:40:41;;;;;;;0.10;0.10;;;;;;;17.25;90.44;101775.31;10374948;28;20246;-61
2021/07/16 02:45:43;;;;;;;0.00;0.00;;;;;;;17.23;90.74;101788.13;10371689;28;20021;-62
2021/07/16 02:50:46;;;;;;;0.10;0.10;;;;;;;17.23;90.72;101788.13;10371029;28;20025;-62
2021/07/16 02:55:52;;;;;;;0.10;0.10;;;;;;;17.25;91.10;101791.47;10371122;28;20473;-62
2021/07/16 03:00:52;;;;;;;0.10;0.10;;;;;;;17.22;91.82;101795.38;10370900;28;20257;-62
2021/07/16 03:05:52;;;;;;;0.00;0.00;;;;;;;17.17;91.97;101798.59;10370562;28;20294;-62
2021/07/16 03:10:54;;;;;;;0.00;0.00;;;;;;;17.15;92.18;101795.25;10401580;28;20108;-62
2021/07/16 03:15:54;;;;;;;0.10;0.10;;;;;;;17.12;92.20;101800.97;10411275;28;20498;-62
2021/07/16 03:20:54;;;;;;;0.10;0.10;;;;;;;17.13;92.48;101816.13;10410730;28;20056;-62
2021/07/16 03:25:55;;;;;;;0.10;0.10;;;;;;;17.15;92.08;101814.09;10409254;28;20276;-62
2021/07/16 03:30:55;;;;;;;0.00;0.00;;;;;;;17.17;92.05;101822.00;10380173;28;20671;-61
2021/07/16 03:35:55;;;;;;;0.10;0.10;;;;;;;17.18;91.63;101829.88;10369681;28;20188;-61
2021/07/16 03:40:58;;;;;;;0.10;0.10;;;;;;;17.22;92.01;101833.06;10376764;28;20033;-61
2021/07/16 03:45:59;;;;;;;0.10;0.10;;;;;;;17.29;91.67;101822.41;10369262;28;20018;-62
2021/07/16 03:50:59;;;;;;;0.00;0.00;;;;;;;17.36;91.20;101837.66;10368544;28;20018;-62
2021/07/16 03:55:59;;;;;;;0.10;0.10;;;;;;;17.41;91.09;101850.59;10369267;28;20477;-62
2021/07/16 04:01:00;;;;;;;0.00;0.00;;;;;;;17.49;90.72;101841.63;10353367;28;20013;-62
2021/07/16 04:06:00;;;;;;;0.10;0.10;;;;;;;17.72;89.90;101836.22;10372710;28;20469;-62
2021/07/16 04:11:00;;;;;;;0.00;0.00;;;;;;;17.80;89.60;101837.03;10388489;28;20036;-60
2021/07/16 04:16:01;;;;;;;0.00;0.00;;;;;;;17.72;89.29;101830.84;10408730;28;20028;-61
2021/07/16 04:21:01;;;;;;;0.00;0.00;;;;;;;17.61;89.46;101824.84;10405134;28;20021;-61
2021/07/16 04:26:02;;;;;;;0.00;0.00;;;;;;;17.59;89.84;101820.66;10398959;28;20018;-62
2021/07/16 04:31:02;;;;;;;0.00;0.00;;;;;;;17.59;89.86;101829.56;10369496;28;20037;-62
2021/07/16 04:36:03;;;;;;;0.00;0.00;;;;;;;17.63;89.78;101833.59;10368308;28;20022;-62
2021/07/16 04:41:03;;;;;;;0.00;0.00;;;;;;;17.74;89.69;101848.47;10367024;28;20109;-62
2021/07/16 04:46:03;;;;;;;0.10;0.10;;;;;;;17.99;88.93;101851.00;10407204;28;20025;-62
2021/07/16 04:51:04;;;;;;;0.00;0.00;;;;;;;18.82;86.88;101843.66;10407610;28;20052;-62
2021/07/16 04:56:04;;;;;;;0.10;0.10;;;;;;;19.72;82.64;101853.16;10407473;28;20045;-62
2021/07/16 05:01:04;;;;;;;0.00;0.00;;;;;;;20.52;79.60;101841.03;10412312;28;20021;-63
2021/07/16 05:06:05;;;;;;;0.10;0.10;;;;;;;21.07;76.34;101850.03;10415838;28;20369;-63
2021/07/16 05:11:06;;;;;;;0.10;0.10;;;;;;;20.92;77.57;101849.38;10397932;28;20485;-63
2021/07/16 05:16:07;;;;;;;0.00;0.00;;;;;;;21.07;77.79;101854.63;10395817;28;20460;-63
2021/07/16 05:21:11;;;;;;;0.00;0.00;;;;;;;21.46;76.56;101854.72;10409819;28;20033;-63
2021/07/16 05:26:12;;;;;;;0.10;0.10;;;;;;;21.87;74.38;101855.59;10415330;28;20396;-63
2021/07/16 05:31:14;;;;;;;0.00;0.00;;;;;;;21.59;75.07;101848.50;10414934;28;20025;-63
2021/07/16 05:36:14;;;;;;;0.10;0.10;;;;;;;21.35;75.49;101862.59;10415376;28;20017;-62
2021/07/16 05:41:15;;;;;;;0.00;0.00;;;;;;;21.00;76.62;101862.72;10396293;28;20069;-63
2021/07/16 05:46:15;;;;;;;0.10;0.10;;;;;;;20.63;77.71;101867.56;10373783;28;20026;-61
2021/07/16 05:51:15;;;;;;;0.00;0.00;;;;;;;20.19;78.98;101884.13;10404460;28;20116;-62
2021/07/16 05:56:16;;;;;;;0.08;0.08;;;;;;;20.27;80.12;101887.50;10398300;28;20018;-62
2021/07/16 06:01:16;;;;;;;0.10;0.10;;;;;;;20.41;79.26;101890.31;10373024;28;20543;-62
2021/07/16 06:06:16;;;;;;;0.00;0.00;;;;;;;21.54;76.17;101880.00;10373130;28;20444;-63
2021/07/16 06:11:17;;;;;;;0.10;0.10;;;;;;;23.17;69.67;101880.16;10372627;28;20025;-63
2021/07/16 06:16:17;;;;;;;0.10;0.10;;;;;;;22.49;70.77;101889.59;10370649;28;20018;-63
2021/07/16 06:21:17;;;;;;;0.10;0.10;;;;;;;21.75;73.61;101901.47;10385001;28;20029;-62
2021/07/16 06:26:18;;;;;;;0.00;0.00;;;;;;;21.97;74.95;101899.41;10382734;28;20079;-63
2021/07/16 06:31:18;;;;;;;0.03;0.03;;;;;;;23.30;70.73;101895.53;10368070;28;20072;-63
2021/07/16 06:36:18;;;;;;;0.00;0.00;;;;;;;23.49;68.93;101902.75;10371638;28;20010;-63
2021/07/16 06:41:19;;;;;;;0.10;0.10;;;;;;;22.91;70.31;101911.78;10371326;28;20022;-63
2021/07/16 06:46:19;;;;;;;0.10;0.10;;;;;;;22.54;72.75;101913.34;10371024;28;20163;-61
2021/07/16 06:51:20;;;;;;;0.00;0.00;;;;;;;22.66;72.27;101905.41;10370988;28;20038;-63
2021/07/16 06:56:21;;;;;;;0.10;0.10;;;;;;;22.86;70.92;101908.88;10403911;28;20022;-63
2021/07/16 07:01:21;;;;;;;0.08;0.08;;;;;;;22.59;72.12;101913.56;10370186;28;20022;-59
2021/07/16 07:06:22;;;;;;;0.00;0.00;;;;;;;22.80;70.65;101915.16;10407155;23;20052;-64
2021/07/16 07:11:22;;;;;;;0.10;0.10;;;;;;;23.65;70.93;101914.97;10413579;28;20049;-65
2021/07/16 07:16:23;;;;;;;0.10;0.10;;;;;;;24.12;68.70;101927.22;10413391;28;20101;-65
2021/07/16 07:21:23;;;;;;;0.10;0.10;;;;;;;24.42;65.76;101923.78;10412824;28;20029;-65
2021/07/16 07:26:23;;;;;;;0.10;0.10;;;;;;;23.86;66.59;101925.53;10377219;28;20286;-64
2021/07/16 07:31:24;;;;;;;0.10;0.10;;;;;;;23.93;68.07;101939.09;10371842;28;20390;-65
2021/07/16 07:36:24;;;;;;;0.10;0.10;;;;;;;24.25;65.78;101933.59;10371569;28;20739;-65
2021/07/16 07:41:26;;;;;;;0.10;0.10;;;;;;;24.72;66.57;101937.53;10371632;28;20029;-64
2021/07/16 07:46:27;;;;;;;0.10;0.10;;;;;;;25.64;62.21;101945.63;10371228;28;20053;-66
2021/07/16 07:51:27;;;;;;;0.10;0.10;;;;;;;26.06;60.62;101939.31;10371061;28;20058;-65
2021/07/16 07:56:28;;;;;;;0.10;0.10;;;;;;;27.00;61.67;101955.69;10371584;28;20465;-65
2021/07/16 08:01:28;;;;;;;0.10;0.10;;;;;;;27.63;58.47;101952.00;10369329;28;20105;-65
2021/07/16 08:06:29;;;;;;;0.10;0.10;;;;;;;28.06;55.35;101941.53;10371008;28;20028;-66
2021/07/16 08:11:30;;;;;;;0.10;0.10;;;;;;;27.86;55.28;101959.28;10370323;28;20076;-66
2021/07/16 08:16:31;;;;;;;0.00;0.00;;;;;;;27.90;56.11;101957.72;10368995;28;20026;-65
2021/07/16 08:21:31;;;;;;;0.10;0.10;;;;;;;27.60;56.20;101952.50;10369961;28;20499;-65
2021/07/16 08:26:34;;;;;;;0.10;0.10;;;;;;;27.17;57.10;101942.09;10369706;28;20381;-65
2021/07/16 08:31:36;;;;;;;0.10;0.10;;;;;;;26.81;58.68;101958.56;10369604;28;20034;-66
2021/07/16 08:36:36;;;;;;;0.10;0.10;;;;;;;26.55;58.35;101976.28;10369342;28;20037;-66
2021/07/16 08:41:37;;;;;;;0.10;0.10;;;;;;;26.10;58.73;101979.56;10369439;28;20405;-66
2021/07/16 08:46:42;;;;;;;;;;;;;;;25.90;58.48;101979.06;10370372;28;20074;-65
2021/07/16 08:51:43;;;;;;;0.00;0.00;;;;;;;25.80;59.00;101979.56;10369041;28;20020;-64
2021/07/16 08:56:45;;;;;;;0.10;0.10;;;;;;;26.63;58.46;101975.94;10368196;28;20109;-66
2021/07/16 09:01:46;;;;;;;0.10;0.10;;;;;;;27.30;59.78;101975.47;10369585;28;20025;-66
2021/07/16 09:06:46;;;;;;;0.10;0.10;;;;;;;27.60;58.01;101976.31;10368930;28;20026;-64
2021/07/16 09:11:50;;;;;;;0.10;0.10;;;;;;;27.79;55.80;101976.97;10369437;28;20112;-65
2021/07/16 09:16:58;;;;;;;0.10;0.10;;;;;;;27.53;55.88;101981.94;10369501;28;20026;-66
2021/07/16 09:22:09;;;;;;;0.10;0.10;;;;;;;27.40;58.59;101988.53;10369184;28;20030;-66
2021/07/16 09:27:27;;;;;;;0.10;0.10;;;;;;;27.38;59.43;101984.38;10369300;28;20535;-66
2021/07/16 09:32:29;;;;;;;0.10;0.10;;;;;;;28.35;56.85;101977.88;10369148;28;20026;-64
2021/07/16 09:37:29;;;;;;;0.10;0.10;;;;;;;28.66;54.82;101985.50;10401539;28;20039;-66
2021/07/16 09:42:36;;;;;;;0.10;0.10;;;;;;;28.86;54.78;101984.13;10410206;28;20040;-66
2021/07/16 09:47:37;;;;;;;0.10;0.10;;;;;;;28.80;54.51;101983.25;10412797;28;20021;-65
2021/07/16 09:52:38;;;;;;;0.10;0.10;;;;;;;29.20;54.30;101982.09;10417117;28;20067;-64
2021/07/16 09:57:43;;;;;;;0.00;0.00;;;;;;;28.96;51.35;101987.00;10417065;28;20049;-66
2021/07/16 10:02:50;;;;;;;0.10;0.10;;;;;;;29.16;54.48;101991.94;10416034;28;20425;-66
2021/07/16 10:07:52;;;;;;;0.00;0.00;;;;;;;29.25;54.54;101987.66;10416007;28;20060;-66
2021/07/16 10:12:52;;;;;;;0.10;0.10;;;;;;;28.51;54.13;102004.47;10411537;28;20449;-66
2021/07/16 10:17:53;;;;;;;0.10;0.10;;;;;;;28.04;53.19;101999.28;10410857;28;20108;-66
2021/07/16 10:22:54;;;;;;;0.10;0.10;;;;;;;27.90;55.29;101997.97;10410363;28;20025;-64
2021/07/16 10:27:55;;;;;;;0.00;0.00;;;;;;;28.00;56.81;101998.13;10415495;28;20034;-66
2021/07/16 10:32:55;;;;;;;0.10;0.10;;;;;;;28.05;56.73;102002.88;10414970;28;20620;-67
2021/07/16 10:38:32;;;;;;;0.20;0.20;;;;;;;27.90;56.41;101998.78;10412590;28;20733;-66
2021/07/16 10:43:32;;;;;;;0.10;0.10;;;;;;;28.09;57.65;101999.38;10409713;28;20465;-66
2021/07/16 10:48:41;;;;;;;0.10;0.10;;;;;;;27.60;54.70;102003.66;10409438;28;20029;-66
2021/07/16 10:53:41;;;;;;;0.10;0.10;;;;;;;27.64;58.24;102010.31;10427603;28;20109;-66
2021/07/16 10:58:44;;;;;;;0.10;0.10;;;;;;;27.87;56.18;102020.38;10414297;28;20428;-66
2021/07/16 11:03:52;;;;;;;0.10;0.10;;;;;;;27.58;54.67;102022.22;10413513;28;20284;-65
2021/07/16 11:08:57;;;;;;;0.10;0.10;;;;;;;27.01;58.16;102023.78;10413663;28;20598;-65
2021/07/16 11:13:59;;;;;;;0.10;0.10;;;;;;;26.97;55.73;102022.63;10413803;28;20018;-66
2021/07/16 11:19:03;;;;;;;0.10;0.10;;;;;;;27.01;57.13;102032.00;10413793;28;20090;-66
2021/07/16 11:24:03;;;;;;;0.10;0.10;;;;;;;27.13;56.44;102031.16;10428142;28;20109;-66
2021/07/16 11:29:06;;;;;;;0.00;0.00;;;;;;;27.24;58.41;102038.53;10412460;28;20159;-67
2021/07/16 11:34:13;;;;;;;0.10;0.10;;;;;;;27.41;58.57;102038.59;10412384;28;20026;-66
2021/07/16 11:39:26;;;;;;;0.10;0.10;;;;;;;27.28;57.07;102046.00;10412875;28;20388;-67
2021/07/16 11:44:31;;;;;;;0.10;0.10;;;;;;;27.16;57.15;102053.41;10412023;28;20025;-67
2021/07/16 11:49:32;;;;;;;0.10;0.10;;;;;;;27.05;56.71;102040.53;10412094;28;20033;-65
2021/07/16 11:54:32;;;;;;;0.10;0.10;;;;;;;26.88;56.92;102043.19;10412449;28;20017;-66
2021/07/16 11:59:35;;;;;;;0.10;0.10;;;;;;;26.59;56.29;102043.06;10412168;28;20029;-66
2021/07/16 12:04:41;;;;;;;0.10;0.10;;;;;;;26.61;55.49;102048.28;10411719;28;20029;-66
2021/07/16 12:09:44;;;;;;;0.00;0.00;;;;;;;26.73;56.36;102040.91;10406265;28;20057;-66
2021/07/16 12:14:52;;;;;;;0.10;0.10;;;;;;;26.60;56.47;102042.00;10404711;28;20053;-64
2021/07/16 12:19:55;;;;;;;0.10;0.10;;;;;;;26.62;56.98;102048.06;10405117;28;20044;-66
2021/07/16 12:24:56;;;;;;;0.00;0.00;;;;;;;26.64;55.28;102032.25;10408911;28;20228;-66
2021/07/16 12:30:04;;;;;;;0.10;0.10;;;;;;;26.74;56.87;102044.50;10410562;28;20033;-66
2021/07/16 12:35:21;;;;;;;0.10;0.10;;;;;;;26.91;55.83;102052.78;10410818;28;20017;-65
2021/07/16 12:40:22;;;;;;;0.10;0.10;;;;;;;26.92;56.29;102047.09;10410267;28;20423;-66
2021/07/16 12:45:35;;;;;;;0.10;0.10;;;;;;;26.99;55.97;102046.97;10410568;28;20029;-65
2021/07/16 12:50:35;;;;;;;0.10;0.10;;;;;;;26.88;54.34;102056.88;10410584;28;20096;-66
2021/07/16 12:55:38;;;;;;;0.10;0.10;;;;;;;26.54;57.87;102062.06;10410044;28;20452;-66
2021/07/16 13:00:40;;;;;;;0.10;0.10;;;;;;;26.29;58.80;102064.97;10408597;28;20021;-66
2021/07/16 13:05:40;;;;;;;0.10;0.10;;;;;;;26.09;56.79;102075.34;10417475;23;20120;-64
2021/07/16 13:10:56;;;;;;;0.10;0.10;;;;;;;25.97;57.36;102076.16;10406909;28;20036;-64
2021/07/16 13:16:19;;;;;;;0.00;0.00;;;;;;;26.00;59.02;102077.56;10403108;28;20499;-61
2021/07/16 13:21:20;;;;;;;0.10;0.10;;;;;;;26.11;59.68;102078.69;10410743;28;20470;-64
2021/07/16 13:26:31;;;;;;;0.10;0.10;;;;;;;26.18;58.32;102080.28;10415407;28;20148;-62
2021/07/16 13:31:31;;;;;;;0.10;0.10;;;;;;;26.03;57.88;102073.56;10413596;28;20067;-62
2021/07/16 13:36:32;;;;;;;0.10;0.10;;;;;;;25.89;59.27;102075.63;10415404;28;20041;-62
2021/07/16 13:41:32;;;;;;;0.10;0.10;;;;;;;25.72;58.98;102083.63;10414899;28;20037;-63
2021/07/16 13:46:35;;;;;;;0.10;0.10;;;;;;;25.86;61.37;102078.81;10414348;28;20428;-62
2021/07/16 13:51:36;;;;;;;0.10;0.10;;;;;;;25.76;59.80;102082.09;10412331;28;20562;-63
2021/07/16 13:56:36;;;;;;;0.10;0.10;;;;;;;25.83;61.71;102087.47;10413403;28;20082;-62
2021/07/16 14:01:37;;;;;;;0.10;0.10;;;;;;;25.68;58.72;102090.59;10411347;28;20534;-63
2021/07/16 14:06:37;;;;;;;0.10;0.10;;;;;;;25.75;60.22;102089.44;10412476;28;20425;-62
2021/07/16 14:11:37;;;;;;;0.10;0.10;;;;;;;25.61;58.46;102077.03;10410722;28;20036;-62
2021/07/16 14:16:38;;;;;;;0.10;0.10;;;;;;;25.54;57.85;102081.75;10412290;28;20495;-62
2021/07/16 14:21:38;;;;;;;0.00;0.00;;;;;;;25.57;57.54;102091.34;10410104;28;20029;-62
2021/07/16 14:26:39;;;;;;;0.10;0.10;;;;;;;25.68;58.48;102098.78;10413147;28;20028;-62
2021/07/16 14:31:40;;;;;;;0.10;0.10;;;;;;;25.62;57.83;102095.06;10411412;28;20041;-62
2021/07/16 14:36:42;;;;;;;0.10;0.10;;;;;;;25.48;59.33;102102.59;10412209;28;20090;-63
2021/07/16 14:41:42;;;;;;;0.10;0.10;;;;;;;25.32;59.88;102108.63;10392522;28;20030;-62
2021/07/16 14:46:42;;;;;;;0.10;0.10;;;;;;;25.31;59.23;102096.06;10413814;28;20030;-62
2021/07/16 14:51:43;;;;;;;0.10;0.10;;;;;;;25.25;61.29;102097.81;10412535;28;20042;-62
2021/07/16 14:56:43;;;;;;;0.10;0.10;;;;;;;25.28;61.20;102085.63;10408856;28;20048;-62
2021/07/16 15:01:44;;;;;;;0.10;0.10;;;;;;;25.40;62.31;102082.97;10409297;28;20025;-62
2021/07/16 15:06:47;;;;;;;0.10;0.10;;;;;;;25.42;62.38;102092.56;10411643;28;20023;-62
2021/07/16 15:11:47;;;;;;;0.10;0.10;;;;;;;25.17;60.25;102081.75;10410531;28;20029;-62
2021/07/16 15:16:48;;;;;;;0.10;0.10;;;;;;;24.80;62.58;102089.81;10411626;28;20018;-62
2021/07/16 15:21:49;;;;;;;0.05;0.05;;;;;;;24.52;63.50;102086.72;10410421;28;20225;-62
2021/07/16 15:26:50;;;;;;;0.10;0.10;;;;;;;24.31;63.62;102094.16;10410798;28;20021;-62
2021/07/16 15:31:51;;;;;;;0.10;0.10;;;;;;;24.44;64.14;102097.91;10410430;28;20476;-62
2021/07/16 15:36:51;;;;;;;0.00;0.00;;;;;;;24.52;62.47;102103.91;10410168;28;20266;-62
2021/07/16 15:41:52;;;;;;;0.00;0.00;;;;;;;24.30;63.50;102100.66;10422981;28;20152;-62
2021/07/16 15:46:53;;;;;;;0.10;0.10;;;;;;;24.32;63.03;102111.34;10409177;28;20025;-63
2021/07/16 15:51:53;;;;;;;0.10;0.10;;;;;;;24.02;63.74;102108.38;10407696;28;20444;-63
2021/07/16 15:56:53;;;;;;;0.00;0.00;;;;;;;23.84;64.38;102106.38;10409553;28;20021;-62
2021/07/16 16:01:54;;;;;;;0.10;0.10;;;;;;;23.73;64.25;102103.28;10407683;28;20028;-63
2021/07/16 16:06:54;;;;;;;0.00;0.00;;;;;;;23.79;65.98;102098.84;10409980;28;20032;-63
2021/07/16 16:11:55;;;;;;;0.10;0.10;;;;;;;24.08;66.84;102091.16;10408088;28;20035;-63
2021/07/16 16:16:55;;;;;;;0.00;0.00;;;;;;;24.26;66.11;102094.00;10409226;28;20017;-63
2021/07/16 16:21:56;;;;;;;0.10;0.10;;;;;;;24.25;66.94;102096.94;10408301;28;20014;-63
2021/07/16 16:26:59;;;;;;;0.10;0.10;;;;;;;24.26;67.45;102093.16;10408744;28;20024;-64
2021/07/16 16:31:59;;;;;;;0.10;0.10;;;;;;;24.19;67.07;102093.19;10408076;28;20495;-63
2021/07/16 16:37:00;;;;;;;0.10;0.10;;;;;;;24.13;67.32;102096.81;10408629;28;20021;-63
2021/07/16 16:42:00;;;;;;;0.10;0.10;;;;;;;24.01;68.18;102104.00;10407267;28;20140;-63
2021/07/16 16:47:01;;;;;;;0.10;0.10;;;;;;;23.95;68.60;102100.25;10408284;28;20480;-63
2021/07/16 16:52:05;;;;;;;0.10;0.10;;;;;;;23.81;69.30;102101.38;10407514;28;20111;-63
2021/07/16 16:57:05;;;;;;;0.10;0.10;;;;;;;23.68;69.41;102094.91;10406789;28;20116;-63
2021/07/16 17:02:05;;;;;;;0.00;0.00;;;;;;;23.56;69.94;102104.81;10406611;28;20028;-64
2021/07/16 17:07:06;;;;;;;0.10;0.10;;;;;;;23.46;70.39;102097.06;10404786;28;20030;-64
2021/07/16 17:12:06;;;;;;;0.10;0.10;;;;;;;23.29;70.41;102112.19;10405892;28;20087;-64
2021/07/16 17:17:07;;;;;;;0.10;0.10;;;;;;;23.16;70.78;102117.66;10404209;28;20071;-64
2021/07/16 17:22:07;;;;;;;0.05;0.05;;;;;;;23.07;71.65;102127.06;10422333;28;20670;-64
2021/07/16 17:27:07;;;;;;;0.10;0.10;;;;;;;23.05;71.90;102136.25;10407043;28;20063;-64
2021/07/16 17:32:08;;;;;;;0.10;0.10;;;;;;;23.09;71.80;102142.09;10422106;28;20021;-64
2021/07/16 17:37:08;;;;;;;0.00;0.00;;;;;;;23.05;71.93;102144.41;10407021;28;20372;-64
2021/07/16 17:42:09;;;;;;;0.10;0.10;;;;;;;22.98;72.48;102151.75;10406246;28;20033;-64
2021/07/16 17:47:09;;;;;;;0.10;0.10;;;;;;;22.88;73.47;102156.72;10406329;28;20018;-64
2021/07/16 17:52:09;;;;;;;0.00;0.00;;;;;;;22.72;73.19;102162.53;10389795;28;20036;-64
2021/07/16 17:57:10;;;;;;;0.10;0.10;;;;;;;22.54;74.04;102165.88;10389157;28;20267;-64
2021/07/16 18:02:10;;;;;;;0.10;0.10;;;;;;;;;;10404618;28;20141;-63
2021/07/16 18:07:10;;;;;;;0.10;0.10;;;;;;;22.18;75.14;102174.34;10407421;28;20057;-63
2021/07/16 18:12:11;;;;;;;0.10;0.10;;;;;;;22.04;75.29;102174.25;10413302;28;20546;-63
2021/07/16 18:17:11;;;;;;;0.10;0.10;;;;;;;21.94;75.98;102173.81;10413077;28;20026;-63
2021/07/16 18:22:11;;;;;;;0.00;0.00;;;;;;;21.83;76.39;102177.09;10413600;28;20031;-63
2021/07/16 18:27:12;;;;;;;0.10;0.10;;;;;;;21.73;76.88;102191.03;10410101;28;20022;-63
2021/07/16 18:32:12;;;;;;;0.05;0.05;;;;;;;21.61;77.47;102188.03;10412929;28;20548;-62
2021/07/16 18:37:13;;;;;;;0.10;0.10;;;;;;;21.52;76.73;102183.78;10411762;28;20040;-59
2021/07/16 18:42:14;;;;;;;0.00;0.00;;;;;;;21.38;75.50;102188.31;10404889;28;20029;-60
2021/07/16 18:47:16;;;;;;;0.00;0.00;;;;;;;21.21;76.56;102198.56;10404016;28;20039;-60
2021/07/16 18:52:17;;;;;;;0.10;0.10;;;;;;;21.03;76.94;102190.94;10406354;28;20271;-61
2021/07/16 18:57:19;;;;;;;0.00;0.00;;;;;;;20.88;77.65;102195.56;10412455;28;20024;-61
2021/07/16 19:02:19;;;;;;;0.00;0.00;;;;;;;20.72;77.46;102203.97;10411669;28;20022;-61
2021/07/16 19:07:23;;;;;;;0.10;0.10;;;;;;;20.51;77.49;102204.75;10396990;22;20448;-65
2021/07/16 19:12:27;;;;;;;0.10;0.10;;;;;;;20.32;78.56;102215.16;10336765;28;20030;-65
2021/07/16 19:17:31;;;;;;;0.10;0.10;;;;;;;20.17;79.11;102227.88;10362173;28;20033;-64
2021/07/16 19:22:32;;;;;;;0.10;0.10;;;;;;;20.03;79.31;102231.44;10364534;28;20030;-65
2021/07/16 19:27:33;;;;;;;0.10;0.10;;;;;;;19.90;80.01;102237.50;10370144;28;20022;-64
2021/07/16 19:32:34;;;;;;;0.10;0.10;;;;;;;19.76;80.17;102251.84;10369276;28;20032;-64
2021/07/16 19:37:34;;;;;;;0.10;0.10;;;;;;;19.63;81.39;102256.00;10362083;28;20018;-65
2021/07/16 19:42:35;;;;;;;0.10;0.10;;;;;;;19.51;81.63;102253.94;10368878;28;20022;-65
2021/07/16 19:47:35;;;;;;;0.10;0.10;;;;;;;19.38;81.97;102255.41;10384834;28;20117;-65
2021/07/16 19:52:36;;;;;;;0.10;0.10;;;;;;;19.24;83.04;102256.19;10368968;28;20022;-64
2021/07/16 19:57:39;;;;;;;0.10;0.10;;;;;;;19.10;83.45;102254.28;10368842;28;20029;-64
2021/07/16 20:02:40;;;;;;;0.10;0.10;;;;;;;18.99;84.30;102251.00;10362111;28;20030;-65
2021/07/16 20:07:40;;;;;;;0.10;0.10;;;;;;;18.87;84.79;102251.56;10363671;28;20033;-65
2021/07/16 20:12:53;;;;;;;0.00;0.00;;;;;;;18.75;85.23;102245.75;10368234;28;20018;-64
2021/07/16 20:17:54;;;;;;;0.03;0.03;;;;;;;18.67;85.95;102245.75;10367482;28;20352;-64
2021/07/16 20:22:54;;;;;;;0.00;0.00;;;;;;;18.60;86.37;102245.66;10367704;28;20105;-63
2021/07/16 20:27:55;;;;;;;0.10;0.10;;;;;;;18.52;86.71;102233.03;10367773;28;20048;-64
2021/07/16 20:32:55;;;;;;;0.10;0.10;;;;;;;18.47;87.38;102250.75;10366898;28;20032;-64
2021/07/16 20:37:55;;;;;;;0.10;0.10;;;;;;;18.40;87.56;102253.34;10362420;28;20026;-64
2021/07/16 20:42:56;;;;;;;0.10;0.10;;;;;;;18.38;87.96;102254.53;10367306;28;20018;-64
2021/07/16 20:47:56;;;;;;;0.00;0.00;;;;;;;18.33;88.49;102260.47;10367594;28;20477;-63
2021/07/16 20:52:56;;;;;;;0.10;0.10;;;;;;;18.30;88.52;102261.66;10367116;28;20457;-64
2021/07/16 20:57:57;;;;;;;0.10;0.10;;;;;;;18.28;88.81;102262.84;10367426;28;20033;-64
2021/07/16 21:02:58;;;;;;;0.10;0.10;;;;;;;18.26;89.39;102259.47;10382311;28;20076;-64
2021/07/16 21:07:58;;;;;;;0.00;0.00;;;;;;;18.25;89.69;102257.78;10359991;28;20461;-65
2021/07/16 21:12:59;;;;;;;0.00;0.00;;;;;;;18.28;89.55;102265.53;10366997;28;20385;-64
2021/07/16 21:18:03;;;;;;;0.10;0.10;;;;;;;18.28;89.71;102271.75;10367883;28;20022;-63
2021/07/16 21:23:03;;;;;;;0.00;0.00;;;;;;;18.27;89.86;102266.56;10367670;28;20026;-65
2021/07/16 21:28:04;;;;;;;0.10;0.10;;;;;;;18.26;90.16;102262.16;10367307;28;20041;-63
2021/07/16 21:33:08;;;;;;;0.00;0.00;;;;;;;18.24;90.04;102265.06;10366779;28;20037;-63
2021/07/16 21:38:09;;;;;;;0.00;0.00;;;;;;;18.23;90.46;102266.06;10360151;28;20022;-64
2021/07/16 21:43:09;;;;;;;0.00;0.00;;;;;;;18.23;90.09;102267.91;10370008;28;20026;-63
2021/07/16 21:48:09;;;;;;;0.00;0.00;;;;;;;18.26;90.65;102268.41;10374777;28;20064;-64
2021/07/16 21:53:09;;;;;;;0.10;0.10;;;;;;;18.27;90.48;102272.78;10349532;28;20292;-64
2021/07/16 21:58:10;;;;;;;0.00;0.00;;;;;;;18.26;90.58;102276.50;10367664;28;20032;-65
2021/07/16 22:03:11;;;;;;;0.03;0.03;;;;;;;18.26;90.32;102270.25;10372999;28;20284;-64
2021/07/16 22:08:11;;;;;;;0.00;0.00;;;;;;;18.23;90.58;102274.13;10376618;28;20030;-64
2021/07/16 22:13:12;;;;;;;0.10;0.10;;;;;;;18.20;90.73;102270.97;10373560;28;20087;-64
2021/07/16 22:18:12;;;;;;;0.05;0.05;;;;;;;18.16;90.84;102266.94;10373914;28;20030;-64
2021/07/16 22:23:12;;;;;;;0.10;0.10;;;;;;;18.11;91.03;102259.38;10364172;28;20018;-64
2021/07/16 22:28:13;;;;;;;0.00;0.00;;;;;;;18.05;91.25;102258.19;10373027;28;20172;-64
2021/07/16 22:33:13;;;;;;;0.00;0.00;;;;;;;18.03;91.34;102254.81;10372996;28;20032;-64
2021/07/16 22:38:13;;;;;;;0.10;0.10;;;;;;;18.00;91.44;102255.16;10373087;28;20030;-64
2021/07/16 22:43:14;;;;;;;0.10;0.10;;;;;;;17.96;91.67;102247.63;10372380;28;20013;-64
2021/07/16 22:48:14;;;;;;;0.10;0.10;;;;;;;17.93;91.94;102256.91;10372795;28;20030;-64
2021/07/16 22:53:14;;;;;;;0.00;0.00;;;;;;;17.93;92.08;102247.97;10365620;28;20409;-64
2021/07/16 22:58:15;;;;;;;0.10;0.10;;;;;;;17.90;91.71;102238.38;10369309;28;20041;-64
2021/07/16 23:03:15;;;;;;;0.00;0.00;;;;;;;17.89;91.87;102247.47;10386906;28;20108;-65
2021/07/16 23:08:15;;;;;;;0.10;0.10;;;;;;;17.88;92.24;102246.63;10368605;28;20812;-65